sensor_id;sensor_type;location;lat;lon;timestamp;P1;durP1;ratioP1;P2;durP2;ratioP2
12196;SDS011;6161;43.014;25.840;2022-11-23T00:01:55;1.77;;;0.53;;
12196;SDS011;6161;43.014;25.840;2022-11-23T00:04:20;0.50;;;0.50;;
12196;SDS011;6161;43.014;25.840;2022-11-23T00:06:46;1.10;;;1.00;;
12196;SDS011;6161;43.014;25.840;2022-11-23T00:09:15;1.17;;;1.07;;
12196;SDS011;6161;43.014;25.840;2022-11-23T00:11:40;0.40;;;0.40;;
12196;SDS011;6161;43.014;25.840;2022-11-23T00:14:05;2.67;;;0.87;;
12196;SDS011;6161;43.014;25.840;2022-11-23T00:16:31;0.60;;;0.60;;
12196;SDS011;6161;43.014;25.840;2022-11-23T00:18:57;0.70;;;0.53;;
12196;SDS011;6161;43.014;25.840;2022-11-23T00:21:24;1.00;;;0.50;;
12196;SDS011;6161;43.014;25.840;2022-11-23T00:23:51;0.30;;;0.30;;
12196;SDS011;6161;43.014;25.840;2022-11-23T00:26:17;0.50;;;0.50;;
12196;SDS011;6161;43.014;25.840;2022-11-23T00:28:43;1.83;;;0.57;;
12196;SDS011;6161;43.014;25.840;2022-11-23T00:31:09;0.57;;;0.53;;
12196;SDS011;6161;43.014;25.840;2022-11-23T00:33:35;0.67;;;0.50;;
12196;SDS011;6161;43.014;25.840;2022-11-23T00:36:02;1.00;;;0.50;;
12196;SDS011;6161;43.014;25.840;2022-11-23T00:38:28;0.50;;;0.50;;
12196;SDS011;6161;43.014;25.840;2022-11-23T00:40:56;1.67;;;0.50;;
12196;SDS011;6161;43.014;25.840;2022-11-23T00:43:22;1.20;;;0.70;;
12196;SDS011;6161;43.014;25.840;2022-11-23T00:45:47;2.63;;;0.50;;
12196;SDS011;6161;43.014;25.840;2022-11-23T00:48:15;0.97;;;0.50;;
12196;SDS011;6161;43.014;25.840;2022-11-23T00:50:40;0.50;;;0.50;;
12196;SDS011;6161;43.014;25.840;2022-11-23T00:53:05;0.73;;;0.70;;
12196;SDS011;6161;43.014;25.840;2022-11-23T00:55:30;0.37;;;0.37;;
12196;SDS011;6161;43.014;25.840;2022-11-23T00:57:57;0.60;;;0.60;;
12196;SDS011;6161;43.014;25.840;2022-11-23T01:00:22;0.30;;;0.30;;
12196;SDS011;6161;43.014;25.840;2022-11-23T01:02:47;2.07;;;0.73;;
12196;SDS011;6161;43.014;25.840;2022-11-23T01:05:13;1.20;;;0.57;;
12196;SDS011;6161;43.014;25.840;2022-11-23T01:07:38;0.60;;;0.60;;
12196;SDS011;6161;43.014;25.840;2022-11-23T01:10:03;0.83;;;0.60;;
12196;SDS011;6161;43.014;25.840;2022-11-23T01:12:29;1.30;;;0.60;;
12196;SDS011;6161;43.014;25.840;2022-11-23T01:14:54;2.23;;;0.97;;
12196;SDS011;6161;43.014;25.840;2022-11-23T01:17:20;0.47;;;0.47;;
12196;SDS011;6161;43.014;25.840;2022-11-23T01:19:45;2.20;;;0.60;;
12196;SDS011;6161;43.014;25.840;2022-11-23T01:22:10;1.17;;;0.70;;
12196;SDS011;6161;43.014;25.840;2022-11-23T01:24:35;0.50;;;0.50;;
12196;SDS011;6161;43.014;25.840;2022-11-23T01:27:01;0.53;;;0.53;;
12196;SDS011;6161;43.014;25.840;2022-11-23T01:29:26;0.60;;;0.50;;
12196;SDS011;6161;43.014;25.840;2022-11-23T01:31:52;0.70;;;0.43;;
12196;SDS011;6161;43.014;25.840;2022-11-23T01:34:17;0.87;;;0.53;;
12196;SDS011;6161;43.014;25.840;2022-11-23T01:36:42;0.50;;;0.50;;
12196;SDS011;6161;43.014;25.840;2022-11-23T01:39:08;0.57;;;0.57;;
12196;SDS011;6161;43.014;25.840;2022-11-23T01:41:35;0.50;;;0.50;;
12196;SDS011;6161;43.014;25.840;2022-11-23T01:44:19;0.50;;;0.50;;
12196;SDS011;6161;43.014;25.840;2022-11-23T01:46:45;1.20;;;0.63;;
12196;SDS011;6161;43.014;25.840;2022-11-23T01:49:10;0.53;;;0.37;;
12196;SDS011;6161;43.014;25.840;2022-11-23T01:51:38;0.97;;;0.80;;
12196;SDS011;6161;43.014;25.840;2022-11-23T01:54:12;1.63;;;0.70;;
12196;SDS011;6161;43.014;25.840;2022-11-23T01:56:41;0.57;;;0.57;;
12196;SDS011;6161;43.014;25.840;2022-11-23T01:59:08;1.67;;;0.80;;
12196;SDS011;6161;43.014;25.840;2022-11-23T02:01:35;0.83;;;0.83;;
12196;SDS011;6161;43.014;25.840;2022-11-23T02:04:00;2.20;;;0.57;;
12196;SDS011;6161;43.014;25.840;2022-11-23T02:06:26;0.77;;;0.70;;
12196;SDS011;6161;43.014;25.840;2022-11-23T02:08:52;2.40;;;0.70;;
12196;SDS011;6161;43.014;25.840;2022-11-23T02:11:18;1.17;;;1.00;;
12196;SDS011;6161;43.014;25.840;2022-11-23T02:13:44;0.67;;;0.43;;
12196;SDS011;6161;43.014;25.840;2022-11-23T02:16:09;0.30;;;0.30;;
12196;SDS011;6161;43.014;25.840;2022-11-23T02:18:35;0.50;;;0.50;;
12196;SDS011;6161;43.014;25.840;2022-11-23T02:21:01;0.70;;;0.50;;
12196;SDS011;6161;43.014;25.840;2022-11-23T02:23:36;0.50;;;0.50;;
12196;SDS011;6161;43.014;25.840;2022-11-23T02:26:16;0.50;;;0.50;;
12196;SDS011;6161;43.014;25.840;2022-11-23T02:28:44;0.40;;;0.40;;
12196;SDS011;6161;43.014;25.840;2022-11-23T02:31:10;1.10;;;0.57;;
12196;SDS011;6161;43.014;25.840;2022-11-23T02:33:36;0.83;;;0.50;;
12196;SDS011;6161;43.014;25.840;2022-11-23T02:36:20;3.67;;;0.50;;
12196;SDS011;6161;43.014;25.840;2022-11-23T02:38:48;0.37;;;0.33;;
12196;SDS011;6161;43.014;25.840;2022-11-23T02:41:13;0.77;;;0.40;;
12196;SDS011;6161;43.014;25.840;2022-11-23T02:43:39;0.30;;;0.30;;
12196;SDS011;6161;43.014;25.840;2022-11-23T02:46:04;0.20;;;0.20;;
12196;SDS011;6161;43.014;25.840;2022-11-23T02:48:30;0.20;;;0.20;;
12196;SDS011;6161;43.014;25.840;2022-11-23T02:50:55;0.33;;;0.33;;
12196;SDS011;6161;43.014;25.840;2022-11-23T02:53:21;0.53;;;0.40;;
12196;SDS011;6161;43.014;25.840;2022-11-23T02:55:46;0.37;;;0.37;;
12196;SDS011;6161;43.014;25.840;2022-11-23T02:58:12;0.50;;;0.50;;
12196;SDS011;6161;43.014;25.840;2022-11-23T03:00:37;0.40;;;0.40;;
12196;SDS011;6161;43.014;25.840;2022-11-23T03:03:02;0.33;;;0.23;;
12196;SDS011;6161;43.014;25.840;2022-11-23T03:05:28;0.47;;;0.33;;
12196;SDS011;6161;43.014;25.840;2022-11-23T03:07:53;0.40;;;0.40;;
12196;SDS011;6161;43.014;25.840;2022-11-23T03:10:19;0.93;;;0.40;;
12196;SDS011;6161;43.014;25.840;2022-11-23T03:12:44;0.23;;;0.23;;
12196;SDS011;6161;43.014;25.840;2022-11-23T03:15:10;0.60;;;0.60;;
12196;SDS011;6161;43.014;25.840;2022-11-23T03:17:35;1.50;;;0.40;;
12196;SDS011;6161;43.014;25.840;2022-11-23T03:20:00;0.40;;;0.40;;
12196;SDS011;6161;43.014;25.840;2022-11-23T03:22:25;0.50;;;0.50;;
12196;SDS011;6161;43.014;25.840;2022-11-23T03:24:51;0.30;;;0.30;;
12196;SDS011;6161;43.014;25.840;2022-11-23T03:27:16;0.50;;;0.50;;
12196;SDS011;6161;43.014;25.840;2022-11-23T03:29:42;0.50;;;0.50;;
12196;SDS011;6161;43.014;25.840;2022-11-23T03:32:07;0.30;;;0.30;;
12196;SDS011;6161;43.014;25.840;2022-11-23T03:34:33;0.30;;;0.30;;
12196;SDS011;6161;43.014;25.840;2022-11-23T03:36:58;2.63;;;0.50;;
12196;SDS011;6161;43.014;25.840;2022-11-23T03:39:23;0.70;;;0.40;;
12196;SDS011;6161;43.014;25.840;2022-11-23T03:41:49;0.50;;;0.50;;
12196;SDS011;6161;43.014;25.840;2022-11-23T03:44:14;1.07;;;0.97;;
12196;SDS011;6161;43.014;25.840;2022-11-23T03:46:39;0.83;;;0.83;;
12196;SDS011;6161;43.014;25.840;2022-11-23T03:49:04;0.70;;;0.70;;
12196;SDS011;6161;43.014;25.840;2022-11-23T03:51:30;1.23;;;0.93;;
12196;SDS011;6161;43.014;25.840;2022-11-23T03:53:55;2.03;;;1.80;;
12196;SDS011;6161;43.014;25.840;2022-11-23T03:56:20;1.23;;;0.93;;
12196;SDS011;6161;43.014;25.840;2022-11-23T03:58:46;1.57;;;1.47;;
12196;SDS011;6161;43.014;25.840;2022-11-23T04:01:11;1.80;;;1.20;;
12196;SDS011;6161;43.014;25.840;2022-11-23T04:03:36;1.20;;;1.10;;
12196;SDS011;6161;43.014;25.840;2022-11-23T04:06:02;0.90;;;0.90;;
12196;SDS011;6161;43.014;25.840;2022-11-23T04:08:28;1.00;;;1.00;;
12196;SDS011;6161;43.014;25.840;2022-11-23T04:10:56;1.00;;;1.00;;
12196;SDS011;6161;43.014;25.840;2022-11-23T04:13:22;1.50;;;1.40;;
12196;SDS011;6161;43.014;25.840;2022-11-23T04:15:47;1.33;;;1.20;;
12196;SDS011;6161;43.014;25.840;2022-11-23T04:18:13;0.77;;;0.77;;
12196;SDS011;6161;43.014;25.840;2022-11-23T04:20:38;1.60;;;0.80;;
12196;SDS011;6161;43.014;25.840;2022-11-23T04:23:03;0.70;;;0.70;;
12196;SDS011;6161;43.014;25.840;2022-11-23T04:25:28;1.00;;;1.00;;
12196;SDS011;6161;43.014;25.840;2022-11-23T04:27:54;0.93;;;0.93;;
12196;SDS011;6161;43.014;25.840;2022-11-23T04:30:19;1.00;;;1.00;;
12196;SDS011;6161;43.014;25.840;2022-11-23T04:32:44;1.30;;;1.30;;
12196;SDS011;6161;43.014;25.840;2022-11-23T04:35:10;1.30;;;1.20;;
12196;SDS011;6161;43.014;25.840;2022-11-23T04:37:35;1.70;;;1.60;;
12196;SDS011;6161;43.014;25.840;2022-11-23T04:40:01;1.27;;;1.17;;
12196;SDS011;6161;43.014;25.840;2022-11-23T04:42:26;0.70;;;0.70;;
12196;SDS011;6161;43.014;25.840;2022-11-23T04:44:51;1.67;;;1.27;;
12196;SDS011;6161;43.014;25.840;2022-11-23T04:47:16;1.10;;;1.10;;
12196;SDS011;6161;43.014;25.840;2022-11-23T04:49:42;1.03;;;1.03;;
12196;SDS011;6161;43.014;25.840;2022-11-23T04:52:07;1.60;;;1.50;;
12196;SDS011;6161;43.014;25.840;2022-11-23T04:54:32;3.13;;;1.80;;
12196;SDS011;6161;43.014;25.840;2022-11-23T04:56:58;1.47;;;1.37;;
12196;SDS011;6161;43.014;25.840;2022-11-23T04:59:23;1.77;;;1.67;;
12196;SDS011;6161;43.014;25.840;2022-11-23T05:01:49;1.50;;;1.40;;
12196;SDS011;6161;43.014;25.840;2022-11-23T05:04:16;0.70;;;0.70;;
12196;SDS011;6161;43.014;25.840;2022-11-23T05:06:41;2.03;;;1.40;;
12196;SDS011;6161;43.014;25.840;2022-11-23T05:09:07;1.93;;;1.67;;
12196;SDS011;6161;43.014;25.840;2022-11-23T05:11:32;2.13;;;1.10;;
12196;SDS011;6161;43.014;25.840;2022-11-23T05:13:57;2.23;;;0.87;;
12196;SDS011;6161;43.014;25.840;2022-11-23T05:16:22;1.20;;;1.10;;
12196;SDS011;6161;43.014;25.840;2022-11-23T05:18:48;0.70;;;0.70;;
12196;SDS011;6161;43.014;25.840;2022-11-23T05:21:13;0.83;;;0.80;;
12196;SDS011;6161;43.014;25.840;2022-11-23T05:23:38;0.57;;;0.57;;
12196;SDS011;6161;43.014;25.840;2022-11-23T05:26:04;0.80;;;0.80;;
12196;SDS011;6161;43.014;25.840;2022-11-23T05:28:31;0.80;;;0.80;;
12196;SDS011;6161;43.014;25.840;2022-11-23T05:30:57;0.70;;;0.70;;
12196;SDS011;6161;43.014;25.840;2022-11-23T05:33:22;4.13;;;1.00;;
12196;SDS011;6161;43.014;25.840;2022-11-23T05:35:47;1.00;;;1.00;;
12196;SDS011;6161;43.014;25.840;2022-11-23T05:38:13;1.90;;;1.20;;
12196;SDS011;6161;43.014;25.840;2022-11-23T05:40:38;1.87;;;1.67;;
12196;SDS011;6161;43.014;25.840;2022-11-23T05:43:04;1.47;;;1.37;;
12196;SDS011;6161;43.014;25.840;2022-11-23T05:45:29;1.40;;;1.30;;
12196;SDS011;6161;43.014;25.840;2022-11-23T05:47:55;1.10;;;1.00;;
12196;SDS011;6161;43.014;25.840;2022-11-23T05:50:22;1.00;;;0.80;;
12196;SDS011;6161;43.014;25.840;2022-11-23T05:52:47;1.17;;;1.10;;
12196;SDS011;6161;43.014;25.840;2022-11-23T05:55:13;0.73;;;0.70;;
12196;SDS011;6161;43.014;25.840;2022-11-23T05:57:40;1.00;;;1.00;;
12196;SDS011;6161;43.014;25.840;2022-11-23T06:00:06;1.13;;;1.03;;
12196;SDS011;6161;43.014;25.840;2022-11-23T06:02:32;1.10;;;1.10;;
12196;SDS011;6161;43.014;25.840;2022-11-23T06:04:57;1.30;;;1.20;;
12196;SDS011;6161;43.014;25.840;2022-11-23T06:07:22;1.80;;;1.10;;
12196;SDS011;6161;43.014;25.840;2022-11-23T06:09:48;1.23;;;1.10;;
12196;SDS011;6161;43.014;25.840;2022-11-23T06:12:13;0.50;;;0.50;;
12196;SDS011;6161;43.014;25.840;2022-11-23T06:14:38;3.43;;;2.50;;
12196;SDS011;6161;43.014;25.840;2022-11-23T06:17:03;1.50;;;1.40;;
12196;SDS011;6161;43.014;25.840;2022-11-23T06:19:29;2.17;;;1.60;;
12196;SDS011;6161;43.014;25.840;2022-11-23T06:21:55;1.97;;;1.23;;
12196;SDS011;6161;43.014;25.840;2022-11-23T06:24:21;1.50;;;1.40;;
12196;SDS011;6161;43.014;25.840;2022-11-23T06:26:46;1.60;;;1.50;;
12196;SDS011;6161;43.014;25.840;2022-11-23T06:29:11;2.03;;;1.53;;
12196;SDS011;6161;43.014;25.840;2022-11-23T06:31:37;1.00;;;0.97;;
12196;SDS011;6161;43.014;25.840;2022-11-23T06:34:02;1.40;;;1.30;;
12196;SDS011;6161;43.014;25.840;2022-11-23T06:36:27;2.07;;;1.73;;
12196;SDS011;6161;43.014;25.840;2022-11-23T06:38:52;1.50;;;1.40;;
12196;SDS011;6161;43.014;25.840;2022-11-23T06:41:18;2.33;;;2.10;;
12196;SDS011;6161;43.014;25.840;2022-11-23T06:43:45;1.40;;;1.20;;
12196;SDS011;6161;43.014;25.840;2022-11-23T06:46:10;3.23;;;2.10;;
12196;SDS011;6161;43.014;25.840;2022-11-23T06:48:36;2.63;;;2.03;;
12196;SDS011;6161;43.014;25.840;2022-11-23T06:51:01;2.70;;;2.23;;
12196;SDS011;6161;43.014;25.840;2022-11-23T06:53:27;2.23;;;2.00;;
12196;SDS011;6161;43.014;25.840;2022-11-23T06:55:56;2.57;;;1.90;;
12196;SDS011;6161;43.014;25.840;2022-11-23T06:58:21;0.80;;;0.80;;
12196;SDS011;6161;43.014;25.840;2022-11-23T07:00:47;1.10;;;1.10;;
12196;SDS011;6161;43.014;25.840;2022-11-23T07:03:18;1.20;;;1.20;;
12196;SDS011;6161;43.014;25.840;2022-11-23T07:05:43;2.10;;;1.57;;
12196;SDS011;6161;43.014;25.840;2022-11-23T07:08:09;2.20;;;1.37;;
12196;SDS011;6161;43.014;25.840;2022-11-23T07:10:35;0.90;;;0.90;;
12196;SDS011;6161;43.014;25.840;2022-11-23T07:13:04;2.17;;;1.53;;
12196;SDS011;6161;43.014;25.840;2022-11-23T07:15:29;3.13;;;2.73;;
12196;SDS011;6161;43.014;25.840;2022-11-23T07:17:55;2.47;;;2.27;;
12196;SDS011;6161;43.014;25.840;2022-11-23T07:20:20;3.47;;;2.47;;
12196;SDS011;6161;43.014;25.840;2022-11-23T07:22:45;1.83;;;1.63;;
12196;SDS011;6161;43.014;25.840;2022-11-23T07:25:10;2.77;;;1.40;;
12196;SDS011;6161;43.014;25.840;2022-11-23T07:27:40;1.77;;;1.57;;
12196;SDS011;6161;43.014;25.840;2022-11-23T07:30:06;2.40;;;2.20;;
12196;SDS011;6161;43.014;25.840;2022-11-23T07:32:31;10.17;;;6.07;;
12196;SDS011;6161;43.014;25.840;2022-11-23T07:34:56;3.80;;;3.03;;
12196;SDS011;6161;43.014;25.840;2022-11-23T07:37:22;1.80;;;1.70;;
12196;SDS011;6161;43.014;25.840;2022-11-23T07:39:47;2.07;;;1.87;;
12196;SDS011;6161;43.014;25.840;2022-11-23T07:42:12;1.97;;;1.70;;
12196;SDS011;6161;43.014;25.840;2022-11-23T07:44:38;3.13;;;2.23;;
12196;SDS011;6161;43.014;25.840;2022-11-23T07:47:04;2.83;;;1.93;;
12196;SDS011;6161;43.014;25.840;2022-11-23T07:49:29;4.87;;;3.37;;
12196;SDS011;6161;43.014;25.840;2022-11-23T07:51:54;2.83;;;2.57;;
12196;SDS011;6161;43.014;25.840;2022-11-23T07:54:20;4.33;;;2.40;;
12196;SDS011;6161;43.014;25.840;2022-11-23T07:56:45;3.33;;;2.47;;
12196;SDS011;6161;43.014;25.840;2022-11-23T07:59:10;2.97;;;2.53;;
12196;SDS011;6161;43.014;25.840;2022-11-23T08:01:36;2.10;;;1.90;;
12196;SDS011;6161;43.014;25.840;2022-11-23T08:04:01;2.10;;;1.90;;
12196;SDS011;6161;43.014;25.840;2022-11-23T08:06:27;2.10;;;1.70;;
12196;SDS011;6161;43.014;25.840;2022-11-23T08:08:53;2.07;;;1.93;;
12196;SDS011;6161;43.014;25.840;2022-11-23T08:11:19;2.37;;;2.07;;
12196;SDS011;6161;43.014;25.840;2022-11-23T08:13:46;2.37;;;2.17;;
12196;SDS011;6161;43.014;25.840;2022-11-23T08:16:11;3.17;;;1.80;;
12196;SDS011;6161;43.014;25.840;2022-11-23T08:18:36;1.47;;;1.37;;
12196;SDS011;6161;43.014;25.840;2022-11-23T08:21:02;1.77;;;1.67;;
12196;SDS011;6161;43.014;25.840;2022-11-23T08:23:28;1.03;;;0.93;;
12196;SDS011;6161;43.014;25.840;2022-11-23T08:25:53;1.33;;;1.13;;
12196;SDS011;6161;43.014;25.840;2022-11-23T08:28:18;1.10;;;1.00;;
12196;SDS011;6161;43.014;25.840;2022-11-23T08:30:44;2.03;;;1.80;;
12196;SDS011;6161;43.014;25.840;2022-11-23T08:33:09;1.80;;;1.70;;
12196;SDS011;6161;43.014;25.840;2022-11-23T08:35:37;1.63;;;1.53;;
12196;SDS011;6161;43.014;25.840;2022-11-23T08:38:03;1.40;;;1.30;;
12196;SDS011;6161;43.014;25.840;2022-11-23T08:40:28;1.40;;;1.30;;
12196;SDS011;6161;43.014;25.840;2022-11-23T08:42:53;1.50;;;1.40;;
12196;SDS011;6161;43.014;25.840;2022-11-23T08:45:19;1.50;;;1.40;;
12196;SDS011;6161;43.014;25.840;2022-11-23T08:47:44;1.63;;;1.53;;
12196;SDS011;6161;43.014;25.840;2022-11-23T08:50:10;1.57;;;1.47;;
12196;SDS011;6161;43.014;25.840;2022-11-23T08:52:35;1.67;;;1.53;;
12196;SDS011;6161;43.014;25.840;2022-11-23T08:55:00;1.60;;;1.50;;
12196;SDS011;6161;43.014;25.840;2022-11-23T08:57:26;1.97;;;1.77;;
12196;SDS011;6161;43.014;25.840;2022-11-23T08:59:51;1.50;;;1.40;;
12196;SDS011;6161;43.014;25.840;2022-11-23T09:02:16;1.83;;;1.73;;
12196;SDS011;6161;43.014;25.840;2022-11-23T09:04:42;1.97;;;1.87;;
12196;SDS011;6161;43.014;25.840;2022-11-23T09:07:07;1.87;;;1.67;;
12196;SDS011;6161;43.014;25.840;2022-11-23T09:09:32;2.23;;;1.50;;
12196;SDS011;6161;43.014;25.840;2022-11-23T09:11:58;1.60;;;1.50;;
12196;SDS011;6161;43.014;25.840;2022-11-23T09:14:23;2.70;;;1.60;;
12196;SDS011;6161;43.014;25.840;2022-11-23T09:16:49;1.93;;;1.77;;
12196;SDS011;6161;43.014;25.840;2022-11-23T09:19:15;1.77;;;1.67;;
12196;SDS011;6161;43.014;25.840;2022-11-23T09:21:40;1.80;;;1.70;;
12196;SDS011;6161;43.014;25.840;2022-11-23T09:24:08;2.23;;;1.70;;
12196;SDS011;6161;43.014;25.840;2022-11-23T09:26:34;1.80;;;1.70;;
12196;SDS011;6161;43.014;25.840;2022-11-23T09:28:59;4.03;;;1.70;;
12196;SDS011;6161;43.014;25.840;2022-11-23T09:31:24;1.67;;;1.57;;
12196;SDS011;6161;43.014;25.840;2022-11-23T09:33:52;1.57;;;1.47;;
12196;SDS011;6161;43.014;25.840;2022-11-23T09:36:18;4.27;;;1.80;;
12196;SDS011;6161;43.014;25.840;2022-11-23T09:38:43;2.57;;;1.73;;
12196;SDS011;6161;43.014;25.840;2022-11-23T09:41:14;1.63;;;1.53;;
12196;SDS011;6161;43.014;25.840;2022-11-23T09:46:52;2.07;;;1.63;;
12196;SDS011;6161;43.014;25.840;2022-11-23T09:49:19;1.67;;;1.57;;
12196;SDS011;6161;43.014;25.840;2022-11-23T09:51:45;1.70;;;1.60;;
12196;SDS011;6161;43.014;25.840;2022-11-23T09:56:46;1.63;;;1.53;;
12196;SDS011;6161;43.014;25.840;2022-11-23T10:00:01;1.80;;;1.70;;
12196;SDS011;6161;43.014;25.840;2022-11-23T10:02:00;1.80;;;1.70;;
12196;SDS011;6161;43.014;25.840;2022-11-23T10:04:28;1.70;;;1.60;;
12196;SDS011;6161;43.014;25.840;2022-11-23T10:06:55;1.97;;;1.77;;
12196;SDS011;6161;43.014;25.840;2022-11-23T10:12:02;1.70;;;1.60;;
12196;SDS011;6161;43.014;25.840;2022-11-23T10:14:57;1.87;;;1.67;;
12196;SDS011;6161;43.014;25.840;2022-11-23T10:22:25;1.60;;;1.50;;
12196;SDS011;6161;43.014;25.840;2022-11-23T10:24:51;1.77;;;1.67;;
12196;SDS011;6161;43.014;25.840;2022-11-23T10:27:17;2.10;;;1.90;;
12196;SDS011;6161;43.014;25.840;2022-11-23T10:29:43;2.40;;;2.07;;
12196;SDS011;6161;43.014;25.840;2022-11-23T10:35:07;1.60;;;1.50;;
12196;SDS011;6161;43.014;25.840;2022-11-23T10:37:35;2.27;;;1.70;;
12196;SDS011;6161;43.014;25.840;2022-11-23T10:40:15;1.97;;;1.87;;
12196;SDS011;6161;43.014;25.840;2022-11-23T10:42:46;1.47;;;1.37;;
12196;SDS011;6161;43.014;25.840;2022-11-23T10:45:20;1.50;;;1.40;;
12196;SDS011;6161;43.014;25.840;2022-11-23T10:47:51;2.00;;;1.70;;
12196;SDS011;6161;43.014;25.840;2022-11-23T10:50:35;2.03;;;1.60;;
12196;SDS011;6161;43.014;25.840;2022-11-23T10:55:31;2.43;;;1.70;;
12196;SDS011;6161;43.014;25.840;2022-11-23T10:57:57;3.40;;;1.80;;
12196;SDS011;6161;43.014;25.840;2022-11-23T11:00:23;1.70;;;1.40;;
12196;SDS011;6161;43.014;25.840;2022-11-23T11:05:21;1.77;;;1.67;;
12196;SDS011;6161;43.014;25.840;2022-11-23T11:07:48;4.93;;;1.70;;
12196;SDS011;6161;43.014;25.840;2022-11-23T11:12:58;2.07;;;1.90;;
12196;SDS011;6161;43.014;25.840;2022-11-23T11:15:23;2.33;;;1.53;;
12196;SDS011;6161;43.014;25.840;2022-11-23T11:17:55;1.60;;;1.50;;
12196;SDS011;6161;43.014;25.840;2022-11-23T11:22:49;1.70;;;1.60;;
12196;SDS011;6161;43.014;25.840;2022-11-23T11:25:30;2.17;;;1.80;;
12196;SDS011;6161;43.014;25.840;2022-11-23T11:27:57;3.93;;;1.60;;
12196;SDS011;6161;43.014;25.840;2022-11-23T11:30:23;3.37;;;1.90;;
12196;SDS011;6161;43.014;25.840;2022-11-23T11:33:04;2.20;;;2.00;;
12196;SDS011;6161;43.014;25.840;2022-11-23T11:35:34;2.20;;;2.00;;
12196;SDS011;6161;43.014;25.840;2022-11-23T11:38:16;1.67;;;1.57;;
12196;SDS011;6161;43.014;25.840;2022-11-23T11:40:46;1.67;;;1.57;;
12196;SDS011;6161;43.014;25.840;2022-11-23T11:45:38;2.00;;;1.80;;
12196;SDS011;6161;43.014;25.840;2022-11-23T11:50:52;2.90;;;1.90;;
12196;SDS011;6161;43.014;25.840;2022-11-23T11:53:21;2.30;;;2.10;;
12196;SDS011;6161;43.014;25.840;2022-11-23T11:55:50;1.90;;;1.70;;
12196;SDS011;6161;43.014;25.840;2022-11-23T11:58:17;2.47;;;1.70;;
12196;SDS011;6161;43.014;25.840;2022-11-23T12:00:45;1.80;;;1.70;;
12196;SDS011;6161;43.014;25.840;2022-11-23T12:03:54;2.27;;;2.07;;
12196;SDS011;6161;43.014;25.840;2022-11-23T12:06:04;1.77;;;1.67;;
12196;SDS011;6161;43.014;25.840;2022-11-23T12:08:53;1.80;;;1.57;;
12196;SDS011;6161;43.014;25.840;2022-11-23T12:11:20;2.30;;;1.60;;
12196;SDS011;6161;43.014;25.840;2022-11-23T12:13:46;1.83;;;1.73;;
12196;SDS011;6161;43.014;25.840;2022-11-23T12:18:54;1.77;;;1.57;;
12196;SDS011;6161;43.014;25.840;2022-11-23T12:23:50;1.70;;;1.60;;
12196;SDS011;6161;43.014;25.840;2022-11-23T12:26:19;1.70;;;1.60;;
12196;SDS011;6161;43.014;25.840;2022-11-23T12:39:03;1.60;;;1.50;;
12196;SDS011;6161;43.014;25.840;2022-11-23T12:51:44;1.80;;;1.70;;
12196;SDS011;6161;43.014;25.840;2022-11-23T12:57:11;1.80;;;1.70;;
12196;SDS011;6161;43.014;25.840;2022-11-23T12:59:43;2.23;;;2.03;;
12196;SDS011;6161;43.014;25.840;2022-11-23T13:02:22;2.10;;;1.90;;
12196;SDS011;6161;43.014;25.840;2022-11-23T13:04:57;4.83;;;1.80;;
12196;SDS011;6161;43.014;25.840;2022-11-23T13:17:57;2.33;;;2.13;;
12196;SDS011;6161;43.014;25.840;2022-11-23T13:22:49;1.90;;;1.70;;
12196;SDS011;6161;43.014;25.840;2022-11-23T13:25:19;2.37;;;2.00;;
12196;SDS011;6161;43.014;25.840;2022-11-23T13:32:53;2.07;;;1.97;;
12196;SDS011;6161;43.014;25.840;2022-11-23T13:40:26;2.07;;;1.80;;
12196;SDS011;6161;43.014;25.840;2022-11-23T13:42:52;2.00;;;1.83;;
12196;SDS011;6161;43.014;25.840;2022-11-23T13:48:01;1.97;;;1.77;;
12196;SDS011;6161;43.014;25.840;2022-11-23T13:50:27;1.70;;;1.50;;
12196;SDS011;6161;43.014;25.840;2022-11-23T13:52:52;3.30;;;2.20;;
12196;SDS011;6161;43.014;25.840;2022-11-23T13:55:22;2.63;;;2.27;;
12196;SDS011;6161;43.014;25.840;2022-11-23T14:06:00;3.03;;;2.40;;
12196;SDS011;6161;43.014;25.840;2022-11-23T14:08:26;2.93;;;1.90;;
12196;SDS011;6161;43.014;25.840;2022-11-23T14:10:52;2.17;;;1.97;;
12196;SDS011;6161;43.014;25.840;2022-11-23T14:13:19;4.07;;;2.00;;
12196;SDS011;6161;43.014;25.840;2022-11-23T14:15:50;2.30;;;2.03;;
12196;SDS011;6161;43.014;25.840;2022-11-23T14:21:02;2.40;;;2.20;;
12196;SDS011;6161;43.014;25.840;2022-11-23T14:36:53;2.90;;;2.10;;
12196;SDS011;6161;43.014;25.840;2022-11-23T14:41:49;4.33;;;2.87;;
12196;SDS011;6161;43.014;25.840;2022-11-23T14:44:16;3.73;;;2.60;;
12196;SDS011;6161;43.014;25.840;2022-11-23T14:47:02;3.23;;;2.40;;
12196;SDS011;6161;43.014;25.840;2022-11-23T14:49:27;2.20;;;2.00;;
12196;SDS011;6161;43.014;25.840;2022-11-23T14:51:53;4.77;;;3.00;;
12196;SDS011;6161;43.014;25.840;2022-11-23T14:54:19;2.40;;;2.20;;
12196;SDS011;6161;43.014;25.840;2022-11-23T14:56:45;2.63;;;2.43;;
12196;SDS011;6161;43.014;25.840;2022-11-23T14:59:18;2.70;;;2.50;;
12196;SDS011;6161;43.014;25.840;2022-11-23T15:01:48;4.37;;;2.57;;
12196;SDS011;6161;43.014;25.840;2022-11-23T15:04:35;2.50;;;2.30;;
12196;SDS011;6161;43.014;25.840;2022-11-23T15:07:11;4.00;;;2.30;;
12196;SDS011;6161;43.014;25.840;2022-11-23T15:14:45;2.17;;;1.83;;
12196;SDS011;6161;43.014;25.840;2022-11-23T15:17:14;1.97;;;1.83;;
12196;SDS011;6161;43.014;25.840;2022-11-23T15:19:40;3.87;;;2.00;;
12196;SDS011;6161;43.014;25.840;2022-11-23T15:22:12;2.40;;;2.20;;
12196;SDS011;6161;43.014;25.840;2022-11-23T15:24:37;5.53;;;2.00;;
12196;SDS011;6161;43.014;25.840;2022-11-23T15:27:03;2.10;;;2.00;;
12196;SDS011;6161;43.014;25.840;2022-11-23T15:29:33;2.90;;;2.10;;
12196;SDS011;6161;43.014;25.840;2022-11-23T15:31:58;2.07;;;1.87;;
12196;SDS011;6161;43.014;25.840;2022-11-23T15:34:27;2.70;;;1.90;;
12196;SDS011;6161;43.014;25.840;2022-11-23T15:36:53;3.73;;;2.30;;
12196;SDS011;6161;43.014;25.840;2022-11-23T15:39:19;3.50;;;3.10;;
12196;SDS011;6161;43.014;25.840;2022-11-23T15:41:46;3.50;;;2.43;;
12196;SDS011;6161;43.014;25.840;2022-11-23T15:46:40;3.17;;;2.00;;
12196;SDS011;6161;43.014;25.840;2022-11-23T15:49:05;2.20;;;2.00;;
12196;SDS011;6161;43.014;25.840;2022-11-23T15:51:37;2.23;;;2.00;;
12196;SDS011;6161;43.014;25.840;2022-11-23T15:54:04;1.97;;;1.73;;
12196;SDS011;6161;43.014;25.840;2022-11-23T15:58:55;3.00;;;1.63;;
12196;SDS011;6161;43.014;25.840;2022-11-23T16:01:21;1.90;;;1.70;;
12196;SDS011;6161;43.014;25.840;2022-11-23T16:06:16;4.20;;;2.30;;
12196;SDS011;6161;43.014;25.840;2022-11-23T16:08:42;2.53;;;2.30;;
12196;SDS011;6161;43.014;25.840;2022-11-23T16:11:17;5.40;;;4.40;;
12196;SDS011;6161;43.014;25.840;2022-11-23T16:14:08;8.73;;;5.03;;
12196;SDS011;6161;43.014;25.840;2022-11-23T16:16:33;3.00;;;2.57;;
12196;SDS011;6161;43.014;25.840;2022-11-23T16:18:59;6.03;;;3.20;;
12196;SDS011;6161;43.014;25.840;2022-11-23T16:21:24;3.77;;;2.80;;
12196;SDS011;6161;43.014;25.840;2022-11-23T16:23:50;2.63;;;2.43;;
12196;SDS011;6161;43.014;25.840;2022-11-23T16:26:18;2.00;;;1.80;;
12196;SDS011;6161;43.014;25.840;2022-11-23T16:29:01;1.80;;;1.70;;
12196;SDS011;6161;43.014;25.840;2022-11-23T16:34:02;3.13;;;1.90;;
12196;SDS011;6161;43.014;25.840;2022-11-23T16:36:27;2.03;;;1.93;;
12196;SDS011;6161;43.014;25.840;2022-11-23T16:38:53;3.07;;;1.90;;
12196;SDS011;6161;43.014;25.840;2022-11-23T16:41:19;1.80;;;1.70;;
12196;SDS011;6161;43.014;25.840;2022-11-23T16:43:44;2.03;;;1.77;;
12196;SDS011;6161;43.014;25.840;2022-11-23T16:46:09;2.80;;;1.87;;
12196;SDS011;6161;43.014;25.840;2022-11-23T16:48:39;2.67;;;1.70;;
12196;SDS011;6161;43.014;25.840;2022-11-23T16:51:05;2.70;;;2.00;;
12196;SDS011;6161;43.014;25.840;2022-11-23T16:53:30;2.43;;;2.23;;
12196;SDS011;6161;43.014;25.840;2022-11-23T16:55:57;2.70;;;2.50;;